Rechercher aéroport 
image banner adimage banner adimage banner ad
image banner ad

CA28 - Riverside County Rgnl Medical Center

Situé à Moreno Valley, United States

ICAO - CA28, IATA -

Données fournies par Airmate  

Information générale

Coordonnées: N33°54'47" W117°11'47"
Élévation : 1563 feet MSL.
Variation magnétique : 14° East
Voir autres Aéroports à California

Données opérationnelles

Special qualification required
Heure actuelle UTC:
Heure actuelle locale:
Météo à : KRIV - March Arb ( 7 km )
METAR: KRIV 292058Z AUTO 31009KT 10SM CLR 37/10 A2990 RMK AO2 SLP107 T03660100 57012
TAF: TAF KRIV 292000Z 2920/3102 32009KT 9999 FEW150 SCT250 510005 QNH2987INS TS OMTNS NE TEMPO 2921/3002 32012G20KT BECMG 3002/3003 31006KT 9999 SCT120 BKN250 QNH2991INS BECMG 3006/3007 30004KT 9999 FEW120 BKN250 QNH2993INS BECMG 3019/3020 30009KT 9999 VCSH BKN120 BKN200 QNH2993INS TS OMTNS NE-SE TEMPO 3021/3102 31012G18KT 9999 -SHRA VCTS SCT100 BKN120CB BKN200 TX37/2922Z TN19/3013Z
Voir NOTAMs / SUP AIP / TFR affectant cet aéroport [VIEW]
Fréquences de communication: [VIEW]

Pistes:

Coordonnées de l'aéroport

Adresse: Moreno Valley United States

Vue satellite de CA28